Time;durP1;ratioP1;P1;durP2;ratioP2;P2;SDS_P1;SDS_P2;PMS_P1;PMS_P2;Temp;Humidity;BMP_temperature;BMP_pressure;BME280_temperature;BME280_humidity;BME280_pressure;Samples;Min_cycle;Max_cycle;Signal;HPM_P1;HPM_P2
2021/03/21 00:01:35;;;;;;;9.73;4.78;;;6.00;96.10;;;;;;5009703;28;20021;-75
2021/03/21 00:04:01;;;;;;;7.68;4.82;;;6.00;96.00;;;;;;5013803;28;20056;-76
2021/03/21 00:06:26;;;;;;;9.40;5.00;;;5.90;96.00;;;;;;5012090;28;20058;-76
2021/03/21 00:08:52;;;;;;;8.05;5.05;;;5.90;96.00;;;;;;5009574;28;20070;-76
2021/03/21 00:11:18;;;;;;;7.38;4.60;;;5.90;96.00;;;;;;5012196;28;20040;-76
2021/03/21 00:13:43;;;;;;;7.50;4.35;;;5.90;95.90;;;;;;5013385;28;20133;-76
2021/03/21 00:16:09;;;;;;;6.20;4.35;;;5.90;95.90;;;;;;4995137;28;20052;-76
2021/03/21 00:18:38;;;;;;;5.78;4.00;;;5.90;96.20;;;;;;5012648;28;20418;-76
2021/03/21 00:21:06;;;;;;;6.45;3.08;;;5.90;95.80;;;;;;5012104;28;20034;-76
2021/03/21 00:23:32;;;;;;;5.70;2.90;;;5.90;95.80;;;;;;5013718;28;20030;-76
2021/03/21 00:25:58;;;;;;;5.68;3.45;;;5.90;95.80;;;;;;5013134;28;20053;-76
2021/03/21 00:28:28;;;;;;;6.13;3.20;;;5.90;95.80;;;;;;5012720;28;20226;-75
2021/03/21 00:30:55;;;;;;;5.38;2.65;;;5.90;95.70;;;;;;5011407;28;20166;-76
2021/03/21 00:33:23;;;;;;;6.25;3.15;;;5.90;95.70;;;;;;5010415;28;20068;-76
2021/03/21 00:35:51;;;;;;;3.95;2.38;;;5.80;95.70;;;;;;5013998;28;20037;-76
2021/03/21 00:38:29;;;;;;;4.97;2.63;;;5.80;95.70;;;;;;5011013;28;20489;-76
2021/03/21 00:40:56;;;;;;;6.72;2.65;;;5.80;95.60;;;;;;5009593;28;20029;-76
2021/03/21 00:43:22;;;;;;;4.82;2.30;;;5.80;95.50;;;;;;5012298;28;20033;-75
2021/03/21 00:45:48;;;;;;;3.88;1.77;;;5.80;95.50;;;;;;5013080;28;20030;-76
2021/03/21 00:48:16;;;;;;;5.13;2.28;;;5.80;95.50;;;;;;5013302;28;20025;-76
2021/03/21 00:50:42;;;;;;;4.43;2.03;;;5.80;95.50;;;;;;4991536;28;20433;-76
2021/03/21 00:53:07;;;;;;;3.72;2.03;;;5.80;95.50;;;;;;5010236;28;20029;-75
2021/03/21 00:55:33;;;;;;;3.25;1.65;;;5.80;95.50;;;;;;4993923;28;20034;-76
2021/03/21 00:57:59;;;;;;;3.15;1.55;;;5.80;95.50;;;;;;5014438;28;20314;-77
2021/03/21 01:00:40;;;;;;;2.63;1.20;;;5.80;95.50;;;;;;5010572;28;20037;-77
2021/03/21 01:03:06;;;;;;;6.20;2.10;;;5.80;95.80;;;;;;5012836;28;20026;-74
2021/03/21 01:05:38;;;;;;;3.85;1.80;;;5.80;95.50;;;;;;5012031;28;20053;-74
2021/03/21 01:08:26;;;;;;;3.95;1.95;;;5.80;95.50;;;;;;5013890;28;20034;-76
2021/03/21 01:10:56;;;;;;;4.43;1.90;;;5.80;95.40;;;;;;5004859;28;20038;-77
2021/03/21 01:13:22;;;;;;;2.40;1.27;;;5.80;95.40;;;;;;5012017;28;20394;-74
2021/03/21 01:15:48;;;;;;;3.55;1.70;;;5.90;95.40;;;;;;5007729;28;20044;-74
2021/03/21 01:18:29;;;;;;;2.17;1.05;;;5.80;95.40;;;;;;5013281;28;20105;-74
2021/03/21 01:20:55;;;;;;;3.63;1.05;;;5.90;95.40;;;;;;5012343;28;20030;-76
2021/03/21 01:23:21;;;;;;;2.53;1.33;;;5.90;95.40;;;;;;5012679;28;20437;-74
2021/03/21 01:25:47;;;;;;;3.85;1.83;;;5.80;95.30;;;;;;4992885;28;20030;-74
2021/03/21 01:28:22;;;;;;;4.47;2.05;;;5.80;95.30;;;;;;5012423;28;20118;-74
2021/03/21 01:30:50;;;;;;;5.78;2.05;;;5.80;95.30;;;;;;5012374;28;20026;-74
2021/03/21 01:33:16;;;;;;;3.38;1.90;;;5.80;95.30;;;;;;5011632;28;20442;-74
2021/03/21 01:35:42;;;;;;;2.40;1.33;;;5.70;95.30;;;;;;5011888;28;20048;-74
2021/03/21 01:38:07;;;;;;;4.45;1.95;;;5.70;95.40;;;;;;5010635;28;20097;-74
2021/03/21 01:40:35;;;;;;;4.40;1.55;;;5.60;95.40;;;;;;4992952;28;20110;-74
2021/03/21 01:43:01;;;;;;;3.58;1.48;;;5.60;95.60;;;;;;5012722;28;20036;-74
2021/03/21 01:45:34;;;;;;;5.13;3.22;;;5.60;95.60;;;;;;5009565;28;20109;-74
2021/03/21 01:48:09;;;;;;;2.75;1.42;;;5.60;95.70;;;;;;4992781;28;20117;-74
2021/03/21 01:50:58;;;;;;;2.88;1.58;;;5.60;95.80;;;;;;5010374;28;20030;-74
2021/03/21 01:53:28;;;;;;;2.05;1.20;;;5.60;95.70;;;;;;5012011;28;20026;-74
2021/03/21 01:55:55;;;;;;;2.90;1.73;;;5.50;95.80;;;;;;5010593;28;20038;-75
2021/03/21 01:58:23;;;;;;;3.92;1.58;;;5.50;95.80;;;;;;5011409;28;20031;-75
2021/03/21 02:00:51;;;;;;;3.22;1.35;;;5.60;95.90;;;;;;5010639;28;20038;-75
2021/03/21 02:03:16;;;;;;;5.80;2.72;;;5.50;95.90;;;;;;5011683;28;20033;-75
2021/03/21 02:05:43;;;;;;;3.78;2.03;;;5.50;95.90;;;;;;5010776;28;20033;-75
2021/03/21 02:08:29;;;;;;;4.35;2.42;;;5.60;96.00;;;;;;5008223;28;20038;-74
2021/03/21 02:11:14;;;;;;;3.42;2.58;;;5.60;96.00;;;;;;5012289;28;20057;-75
2021/03/21 02:14:02;;;;;;;5.05;3.38;;;5.60;96.10;;;;;;5012118;28;20080;-75
2021/03/21 02:16:34;;;;;;;4.63;3.45;;;5.60;96.10;;;;;;5009247;28;20038;-75
2021/03/21 02:19:28;;;;;;;5.10;3.53;;;5.60;96.10;;;;;;4993992;28;20022;-75
2021/03/21 02:21:59;;;;;;;11.02;4.47;;;5.70;96.10;;;;;;5010815;28;20029;-75
2021/03/21 02:24:59;;;;;;;9.57;5.25;;;5.70;96.10;;;;;;5003712;28;20030;-75
2021/03/21 02:28:08;;;;;;;8.77;6.38;;;5.70;96.10;;;;;;5009857;28;20029;-75
2021/03/21 02:30:47;;;;;;;13.05;7.45;;;5.80;96.00;;;;;;5008951;28;20030;-74
2021/03/21 02:33:33;;;;;;;11.40;8.07;;;5.80;96.00;;;;;;5009556;28;20084;-74
2021/03/21 02:36:14;;;;;;;12.02;7.78;;;5.80;96.00;;;;;;5003846;28;20092;-75
2021/03/21 02:38:55;;;;;;;15.98;9.00;;;5.80;95.90;;;;;;5011564;28;20026;-75
2021/03/21 02:41:41;;;;;;;13.18;9.35;;;5.80;96.00;;;;;;4994338;28;20478;-74
2021/03/21 02:44:12;;;;;;;14.95;10.90;;;5.80;96.00;;;;;;5011932;28;20017;-74
2021/03/21 02:46:41;;;;;;;14.63;10.43;;;5.90;96.00;;;;;;5008997;28;20091;-75
2021/03/21 02:49:51;;;;;;;16.25;11.00;;;5.90;96.00;;;;;;5009527;28;20022;-75
2021/03/21 02:52:29;;;;;;;14.85;9.73;;;5.90;96.00;;;;;;5005806;28;20034;-75
2021/03/21 02:55:04;;;;;;;18.20;13.30;;;5.90;96.00;;;;;;5011195;28;20038;-75
2021/03/21 02:57:40;;;;;;;20.42;13.68;;;5.90;96.00;;;;;;5012208;28;20053;-75
2021/03/21 03:00:08;;;;;;;25.80;17.20;;;5.90;95.90;;;;;;5008533;28;20148;-75
2021/03/21 03:02:45;;;;;;;26.40;17.45;;;5.90;96.00;;;;;;5012325;28;20026;-75
2021/03/21 03:05:16;;;;;;;27.80;18.20;;;5.90;96.00;;;;;;4996490;28;20394;-75
2021/03/21 03:07:49;;;;;;;30.10;20.23;;;5.90;96.00;;;;;;5009237;28;20101;-75
2021/03/21 03:10:27;;;;;;;36.55;22.23;;;5.90;96.00;;;;;;5014372;28;20042;-75
2021/03/21 03:13:07;;;;;;;37.17;23.48;;;5.90;96.10;;;;;;5008458;28;20034;-75
2021/03/21 03:15:37;;;;;;;37.00;23.60;;;5.90;96.20;;;;;;5006835;28;20049;-75
2021/03/21 03:18:27;;;;;;;41.78;25.70;;;5.90;96.20;;;;;;5013096;28;20025;-75
2021/03/21 03:21:02;;;;;;;48.42;29.15;;;5.90;96.20;;;;;;5013007;28;20022;-74
2021/03/21 03:23:51;;;;;;;48.78;27.90;;;5.90;96.30;;;;;;5014385;28;20034;-74
2021/03/21 03:26:46;;;;;;;55.30;30.67;;;5.90;96.40;;;;;;5012843;28;20156;-75
2021/03/21 03:29:19;;;;;;;53.90;28.52;;;5.90;96.40;;;;;;5012354;28;20037;-75
2021/03/21 03:31:49;;;;;;;54.78;30.13;;;5.90;96.40;;;;;;5012925;28;20053;-75
2021/03/21 03:34:15;;;;;;;59.05;31.35;;;5.90;96.50;;;;;;5015511;28;20029;-75
2021/03/21 03:36:41;;;;;;;54.58;30.27;;;6.00;96.50;;;;;;5014899;28;20034;-75
2021/03/21 03:39:07;;;;;;;58.80;29.83;;;5.90;96.50;;;;;;5013340;28;20022;-74
2021/03/21 03:41:51;;;;;;;57.20;32.10;;;5.90;96.50;;;;;;5012635;28;20034;-75
2021/03/21 03:44:40;;;;;;;56.08;31.80;;;5.90;96.40;;;;;;5014499;28;20177;-75
2021/03/21 03:47:18;;;;;;;52.80;30.10;;;5.90;96.40;;;;;;5015240;28;20049;-75
2021/03/21 03:49:55;;;;;;;48.75;26.63;;;5.90;96.40;;;;;;5019615;28;20032;-75
2021/03/21 03:52:39;;;;;;;55.10;31.10;;;5.80;96.40;;;;;;5012575;28;20033;-75
2021/03/21 03:55:21;;;;;;;54.33;30.38;;;5.80;96.50;;;;;;5011986;28;20383;-75
2021/03/21 03:57:51;;;;;;;53.58;28.60;;;5.70;96.60;;;;;;4997196;28;20034;-75
2021/03/21 04:00:52;;;;;;;54.42;29.17;;;5.70;96.70;;;;;;5012485;28;20033;-74
2021/03/21 04:03:57;;;;;;;63.22;33.15;;;5.70;96.70;;;;;;5011631;28;20056;-75
2021/03/21 04:07:01;;;;;;;61.20;31.15;;;5.70;96.70;;;;;;5000737;28;20038;-75
2021/03/21 04:09:34;;;;;;;55.63;30.35;;;5.70;96.80;;;;;;5011485;28;20053;-75
2021/03/21 04:12:14;;;;;;;65.75;33.50;;;5.70;96.90;;;;;;5003187;28;20089;-74
2021/03/21 04:14:49;;;;;;;59.67;31.00;;;5.70;96.90;;;;;;5014323;28;20497;-75
2021/03/21 04:17:34;;;;;;;62.97;31.35;;;5.70;97.00;;;;;;5010883;28;20449;-75
2021/03/21 04:20:31;;;;;;;58.95;30.70;;;5.70;97.00;;;;;;5007025;28;20033;-75
2021/03/21 04:23:18;;;;;;;61.22;32.95;;;5.70;97.10;;;;;;5009022;28;20022;-75
2021/03/21 04:25:50;;;;;;;64.95;33.53;;;5.70;97.10;;;;;;5012453;28;20505;-75
2021/03/21 04:28:26;;;;;;;60.03;31.40;;;5.70;97.10;;;;;;5012455;28;20025;-75
2021/03/21 04:31:02;;;;;;;56.63;30.73;;;5.70;97.20;;;;;;5013744;28;20482;-75
2021/03/21 04:33:36;;;;;;;56.85;30.42;;;5.70;97.30;;;;;;5010677;28;20026;-75
2021/03/21 04:36:07;;;;;;;53.17;29.25;;;5.70;97.30;;;;;;5009264;28;20383;-75
2021/03/21 04:38:47;;;;;;;52.42;29.17;;;5.80;97.30;;;;;;5010814;28;20029;-74
2021/03/21 04:41:20;;;;;;;54.50;28.17;;;5.80;97.30;;;;;;5012313;28;20026;-74
2021/03/21 04:43:47;;;;;;;53.17;28.25;;;5.80;97.30;;;;;;5012484;28;20096;-74
2021/03/21 04:46:29;;;;;;;47.55;26.25;;;5.80;97.30;;;;;;5012841;28;20030;-74
2021/03/21 04:48:55;;;;;;;51.47;27.60;;;5.90;97.30;;;;;;4993497;28;20025;-75
2021/03/21 04:51:31;;;;;;;48.60;26.25;;;5.90;97.30;;;;;;5013835;28;20037;-75
2021/03/21 04:54:02;;;;;;;47.53;25.13;;;5.90;97.30;;;;;;5012014;28;20050;-75
2021/03/21 04:56:34;;;;;;;43.58;23.70;;;5.90;97.30;;;;;;4994590;28;20038;-75
2021/03/21 04:59:13;;;;;;;51.20;26.03;;;5.90;97.30;;;;;;5011715;28;20490;-74
2021/03/21 05:01:55;;;;;;;41.25;23.75;;;5.90;97.30;;;;;;4995779;28;20498;-75
2021/03/21 05:04:25;;;;;;;44.72;24.08;;;5.90;97.30;;;;;;5011344;28;20030;-75
2021/03/21 05:07:13;;;;;;;46.78;24.25;;;5.90;97.30;;;;;;5013611;28;20022;-74
2021/03/21 05:09:46;;;;;;;46.38;25.00;;;6.00;97.20;;;;;;5005754;28;20099;-75
2021/03/21 05:12:32;;;;;;;43.17;23.38;;;6.00;97.30;;;;;;5011259;28;20022;-75
2021/03/21 05:15:22;;;;;;;43.40;21.45;;;6.00;97.20;;;;;;4995984;28;20045;-75
2021/03/21 05:18:09;;;;;;;45.95;23.48;;;6.00;97.20;;;;;;5011814;28;20083;-74
2021/03/21 05:20:46;;;;;;;44.50;21.45;;;6.00;97.20;;;;;;5010803;28;20390;-74
2021/03/21 05:23:21;;;;;;;43.17;21.30;;;6.00;97.10;;;;;;5012691;28;20084;-75
2021/03/21 05:25:55;;;;;;;40.63;21.38;;;6.10;97.10;;;;;;5006980;28;20030;-75
2021/03/21 05:28:48;;;;;;;34.83;18.35;;;6.10;97.10;;;;;;5010750;28;20044;-75
2021/03/21 05:31:14;;;;;;;33.10;17.15;;;6.10;97.10;;;;;;5008300;28;20088;-74
2021/03/21 05:33:40;;;;;;;30.92;15.93;;;6.10;97.00;;;;;;5010737;28;20034;-75
2021/03/21 05:36:45;;;;;;;28.55;13.88;;;6.20;97.00;;;;;;5011707;28;20030;-75
2021/03/21 05:39:43;;;;;;;22.50;12.35;;;6.20;96.90;;;;;;5010549;28;20022;-75
2021/03/21 05:42:32;;;;;;;21.95;11.20;;;6.20;96.80;;;;;;5010554;28;20061;-74
2021/03/21 05:45:23;;;;;;;21.25;10.30;;;6.30;96.70;;;;;;5012476;28;20026;-75
2021/03/21 05:48:07;;;;;;;22.23;11.02;;;6.30;96.60;;;;;;5009806;28;20467;-75
2021/03/21 05:50:48;;;;;;;16.63;8.05;;;6.30;96.50;;;;;;5011179;28;20026;-75
2021/03/21 05:53:38;;;;;;;17.42;8.45;;;6.30;96.30;;;;;;5012160;28;20088;-75
2021/03/21 05:56:41;;;;;;;14.05;6.40;;;6.40;96.10;;;;;;5010527;28;20037;-75
2021/03/21 05:59:25;;;;;;;14.90;5.20;;;6.40;95.80;;;;;;5010483;28;20489;-75
2021/03/21 06:02:28;;;;;;;23.23;6.95;;;6.40;95.50;;;;;;4994208;28;20116;-75
2021/03/21 06:05:11;;;;;;;12.13;4.68;;;6.40;95.30;;;;;;5010809;28;20068;-75
2021/03/21 06:07:55;;;;;;;11.85;4.05;;;6.50;95.10;;;;;;5010969;28;20034;-75
2021/03/21 06:10:48;;;;;;;12.30;3.67;;;6.50;94.90;;;;;;5007240;28;20038;-75
2021/03/21 06:13:30;;;;;;;10.00;2.67;;;6.50;94.60;;;;;;5005139;28;20041;-75
2021/03/21 06:16:13;;;;;;;15.75;2.80;;;6.50;94.40;;;;;;5008386;28;20038;-76
2021/03/21 06:18:59;;;;;;;11.10;2.95;;;6.60;94.30;;;;;;5008934;28;20022;-74
2021/03/21 06:21:38;;;;;;;9.55;3.08;;;6.50;93.90;;;;;;5003016;28;20088;-74
2021/03/21 06:24:25;;;;;;;10.68;2.30;;;6.50;93.90;;;;;;5011367;28;20505;-74
2021/03/21 06:27:08;;;;;;;11.82;3.22;;;6.60;93.90;;;;;;5012825;28;20049;-74
2021/03/21 06:29:54;;;;;;;15.02;2.72;;;6.60;93.90;;;;;;5009924;28;20371;-74
2021/03/21 06:32:53;;;;;;;9.20;2.55;;;6.60;93.80;;;;;;5017448;28;20029;-76
2021/03/21 06:35:43;;;;;;;12.55;3.08;;;6.60;93.80;;;;;;5012301;28;20104;-74
2021/03/21 06:38:42;;;;;;;11.43;3.00;;;6.60;93.80;;;;;;5006233;28;20037;-75
2021/03/21 06:41:26;;;;;;;12.63;2.92;;;6.60;93.90;;;;;;5006181;28;20026;-74
2021/03/21 06:44:06;;;;;;;8.50;1.60;;;6.60;93.90;;;;;;4998336;28;20109;-75
2021/03/21 06:46:57;;;;;;;7.03;1.30;;;6.60;94.20;;;;;;5011988;28;20034;-75
2021/03/21 06:49:39;;;;;;;7.57;1.08;;;6.60;93.90;;;;;;5011733;28;20030;-75
2021/03/21 06:52:26;;;;;;;5.40;1.30;;;6.70;93.70;;;;;;5005842;28;20042;-75
2021/03/21 06:54:54;;;;;;;6.00;1.08;;;6.70;93.50;;;;;;5014732;28;20285;-75
2021/03/21 06:58:07;;;;;;;5.43;0.70;;;6.70;93.10;;;;;;5010702;28;20042;-75
2021/03/21 07:00:56;;;;;;;11.73;0.85;;;6.70;93.10;;;;;;5010379;28;20033;-77
2021/03/21 07:03:36;;;;;;;9.40;0.77;;;6.70;92.90;;;;;;5007726;28;20026;-75
2021/03/21 07:06:26;;;;;;;9.63;0.50;;;6.80;92.90;;;;;;5012025;28;20060;-76
2021/03/21 07:09:20;;;;;;;8.07;0.60;;;6.80;92.80;;;;;;5006478;28;20042;-76
2021/03/21 07:12:41;;;;;;;5.10;0.50;;;6.80;92.70;;;;;;4981857;28;20112;-76
2021/03/21 07:15:36;;;;;;;9.32;0.57;;;6.90;92.60;;;;;;4996985;28;20030;-75
2021/03/21 07:18:33;;;;;;;9.02;0.90;;;6.90;92.20;;;;;;5010300;28;20371;-75
2021/03/21 07:21:17;;;;;;;9.85;0.80;;;6.90;91.90;;;;;;5011374;28;20079;-75
2021/03/21 07:24:17;;;;;;;7.47;0.50;;;6.90;91.70;;;;;;4999431;28;20021;-73
2021/03/21 07:27:16;;;;;;;8.57;1.02;;;6.90;91.50;;;;;;5007487;28;20033;-76
2021/03/21 07:29:50;;;;;;;5.13;0.60;;;6.90;91.40;;;;;;5013407;28;20524;-76
2021/03/21 07:32:34;;;;;;;7.00;0.40;;;7.00;91.30;;;;;;4997870;28;20034;-77
2021/03/21 07:35:14;;;;;;;11.02;0.88;;;7.00;91.10;;;;;;5015984;28;20026;-75
2021/03/21 07:37:47;;;;;;;5.65;0.50;;;7.00;90.90;;;;;;5011501;28;20037;-76
2021/03/21 07:40:16;;;;;;;4.40;0.30;;;7.00;90.90;;;;;;5012428;28;20029;-74
2021/03/21 07:42:59;;;;;;;6.43;0.50;;;7.10;90.90;;;;;;5014254;28;20022;-74
2021/03/21 07:45:59;;;;;;;11.00;0.55;;;7.10;90.70;;;;;;5014066;28;20113;-74
2021/03/21 07:48:50;;;;;;;8.85;0.88;;;7.20;90.40;;;;;;5029447;28;20393;-74
2021/03/21 07:51:34;;;;;;;11.00;0.50;;;7.20;90.30;;;;;;5008092;28;20388;-76
2021/03/21 07:54:16;;;;;;;13.05;1.05;;;7.30;89.50;;;;;;5001523;28;20084;-76
2021/03/21 07:56:49;;;;;;;8.68;0.90;;;7.30;88.40;;;;;;5013169;28;20417;-76
2021/03/21 07:59:19;;;;;;;9.65;1.35;;;7.40;87.40;;;;;;5001932;28;20031;-75
2021/03/21 08:01:45;;;;;;;11.75;1.23;;;7.40;85.40;;;;;;5010516;28;20022;-76
2021/03/21 08:04:35;;;;;;;11.70;1.02;;;7.40;85.20;;;;;;5008620;28;20088;-76
2021/03/21 08:07:13;;;;;;;10.38;0.82;;;7.40;85.50;;;;;;5013969;28;20061;-76
2021/03/21 08:09:40;;;;;;;9.25;0.70;;;7.50;85.40;;;;;;5012054;28;20038;-75
2021/03/21 08:12:37;;;;;;;8.13;0.52;;;7.50;83.60;;;;;;5015961;28;20037;-76
2021/03/21 08:15:17;;;;;;;9.48;0.50;;;7.60;84.10;;;;;;5007985;28;20022;-76
2021/03/21 08:18:00;;;;;;;6.00;0.60;;;7.60;84.30;;;;;;5012901;28;20030;-76
2021/03/21 08:20:36;;;;;;;8.57;0.50;;;7.70;84.40;;;;;;5012106;28;20406;-76
2021/03/21 08:23:13;;;;;;;10.35;0.52;;;7.80;84.00;;;;;;4995055;28;20059;-76
2021/03/21 08:25:39;;;;;;;10.32;0.80;;;7.80;83.50;;;;;;5008240;28;20041;-76
2021/03/21 08:28:05;;;;;;;9.15;0.50;;;7.80;82.80;;;;;;4994379;28;20027;-75
2021/03/21 08:30:55;;;;;;;12.38;0.98;;;7.80;82.50;;;;;;5017522;28;20030;-74
2021/03/21 08:33:33;;;;;;;9.32;0.95;;;7.80;81.50;;;;;;5016483;28;20108;-76
2021/03/21 08:36:28;;;;;;;10.18;0.70;;;7.70;81.80;;;;;;5007734;28;20505;-76
2021/03/21 08:39:01;;;;;;;11.80;0.70;;;7.70;82.10;;;;;;4993749;28;20093;-76
2021/03/21 08:41:30;;;;;;;13.88;0.93;;;7.80;81.90;;;;;;5008580;28;20029;-74
2021/03/21 08:44:05;;;;;;;23.80;1.35;;;7.80;81.50;;;;;;5003400;28;20030;-74
2021/03/21 08:46:33;;;;;;;15.13;0.98;;;7.80;81.40;;;;;;5019164;28;20505;-74
2021/03/21 08:49:33;;;;;;;15.50;1.20;;;7.80;81.40;;;;;;5018340;28;20399;-74
2021/03/21 08:51:59;;;;;;;12.07;0.80;;;7.80;80.50;;;;;;4980422;28;20043;-75
2021/03/21 08:54:29;;;;;;;13.05;0.80;;;7.80;80.60;;;;;;4956608;28;20103;-75
2021/03/21 08:57:04;;;;;;;17.30;1.52;;;7.90;79.50;;;;;;4963796;28;20447;-77
2021/03/21 08:59:45;;;;;;;22.83;2.13;;;7.80;79.20;;;;;;4967889;28;20023;-76
2021/03/21 09:02:16;;;;;;;17.10;1.58;;;7.80;78.80;;;;;;4973057;28;20481;-74
2021/03/21 09:05:01;;;;;;;17.75;1.48;;;7.80;78.90;;;;;;4978741;28;20049;-75
2021/03/21 09:07:32;;;;;;;23.90;1.80;;;7.80;78.50;;;;;;4971210;28;20106;-74
2021/03/21 09:10:11;;;;;;;20.92;1.88;;;7.80;78.50;;;;;;4967043;28;20046;-74
2021/03/21 09:12:42;;;;;;;20.83;2.75;;;7.80;78.40;;;;;;4957814;28;20043;-75
2021/03/21 09:15:16;;;;;;;22.35;1.92;;;7.80;78.70;;;;;;4963973;28;20554;-74
2021/03/21 09:17:48;;;;;;;13.88;1.92;;;7.90;79.00;;;;;;4972826;28;20062;-77
2021/03/21 09:20:17;;;;;;;20.52;1.63;;;7.90;79.60;;;;;;4976277;28;20031;-77
2021/03/21 09:22:45;;;;;;;21.30;2.03;;;7.90;79.70;;;;;;4972921;28;20027;-74
2021/03/21 09:25:15;;;;;;;25.58;2.00;;;7.90;80.00;;;;;;4986472;28;20487;-74
2021/03/21 09:27:43;;;;;;;24.98;2.20;;;7.90;80.00;;;;;;4975370;28;20034;-74
2021/03/21 09:30:09;;;;;;;20.67;1.92;;;7.90;79.90;;;;;;4971495;28;20509;-75
2021/03/21 09:32:35;;;;;;;20.83;1.95;;;7.90;79.70;;;;;;4963005;28;20027;-74
2021/03/21 09:35:12;;;;;;;24.50;2.30;;;7.80;80.30;;;;;;4985233;28;20364;-74
2021/03/21 09:37:40;;;;;;;25.73;1.88;;;7.80;79.70;;;;;;4980791;28;20526;-76
2021/03/21 09:40:31;;;;;;;23.50;2.90;;;7.70;80.20;;;;;;4960554;28;20030;-75
2021/03/21 09:42:57;;;;;;;18.83;2.20;;;7.80;80.80;;;;;;4960650;28;20042;-75
2021/03/21 09:45:23;;;;;;;18.05;2.50;;;7.80;80.70;;;;;;4971046;28;20126;-75
2021/03/21 09:47:54;;;;;;;27.00;2.55;;;7.90;80.70;;;;;;4969321;28;20055;-75
2021/03/21 09:50:46;;;;;;;21.42;2.28;;;7.90;80.50;;;;;;4971182;28;20035;-75
2021/03/21 09:53:37;;;;;;;23.27;2.53;;;8.00;80.30;;;;;;4973325;28;20510;-76
2021/03/21 09:56:21;;;;;;;29.02;2.65;;;8.10;79.90;;;;;;4973844;28;20090;-76
2021/03/21 09:58:49;;;;;;;26.02;2.47;;;8.00;79.70;;;;;;4973106;28;20027;-76
2021/03/21 10:01:41;;;;;;;21.58;1.85;;;8.10;80.20;;;;;;4970619;28;20086;-76
2021/03/21 10:04:28;;;;;;;28.52;2.78;;;8.10;79.00;;;;;;4973417;28;20109;-75
2021/03/21 10:06:58;;;;;;;31.73;2.72;;;8.10;77.90;;;;;;4961754;28;20030;-77
2021/03/21 10:09:28;;;;;;;24.70;2.03;;;8.00;77.00;;;;;;4953587;28;20403;-76
2021/03/21 10:12:04;;;;;;;27.25;3.28;;;8.00;77.10;;;;;;4967192;28;20037;-76
2021/03/21 10:14:30;;;;;;;17.75;1.80;;;8.00;76.30;;;;;;4974027;28;20479;-76
2021/03/21 10:17:00;;;;;;;19.30;2.08;;;8.00;75.60;;;;;;4968988;28;20034;-76
2021/03/21 10:19:47;;;;;;;32.00;2.63;;;8.10;74.50;;;;;;4970717;28;20023;-76
2021/03/21 10:22:25;;;;;;;14.75;1.48;;;8.20;74.00;;;;;;4969139;28;20027;-75
2021/03/21 10:24:53;;;;;;;26.10;3.20;;;8.40;73.60;;;;;;4974655;28;20037;-76
2021/03/21 10:27:24;;;;;;;27.10;2.47;;;8.60;73.20;;;;;;4970309;28;20030;-76
2021/03/21 10:30:08;;;;;;;20.55;2.00;;;8.70;71.50;;;;;;4973614;28;20031;-76
2021/03/21 10:32:35;;;;;;;16.55;2.38;;;8.80;71.30;;;;;;4970655;28;20034;-76
2021/03/21 10:35:03;;;;;;;27.60;3.50;;;8.80;70.40;;;;;;4965875;28;20023;-77
2021/03/21 10:37:44;;;;;;;22.25;2.38;;;8.80;69.80;;;;;;4972721;28;20081;-76
2021/03/21 10:40:37;;;;;;;14.70;2.00;;;8.90;70.60;;;;;;4966825;28;20031;-76
2021/03/21 10:43:46;;;;;;;19.15;2.65;;;8.90;69.60;;;;;;4972862;28;20554;-76
2021/03/21 10:46:45;;;;;;;21.02;2.67;;;8.90;70.30;;;;;;4971520;28;20050;-76
2021/03/21 10:49:11;;;;;;;24.48;2.72;;;8.90;70.60;;;;;;4966852;28;20070;-76
2021/03/21 10:52:06;;;;;;;27.95;3.30;;;8.80;70.40;;;;;;4969878;28;20179;-76
2021/03/21 10:54:31;;;;;;;19.60;2.10;;;8.70;71.00;;;;;;4959315;28;20081;-76
2021/03/21 10:57:23;;;;;;;23.85;2.20;;;8.70;71.70;;;;;;4967756;28;20042;-76
2021/03/21 11:00:12;;;;;;;18.00;1.80;;;8.70;71.50;;;;;;4968038;28;20069;-75
2021/03/21 11:02:41;;;;;;;24.77;3.70;;;8.70;71.80;;;;;;4940351;28;20401;-76
2021/03/21 11:05:22;;;;;;;11.65;2.00;;;8.70;71.10;;;;;;4934782;28;20039;-75
2021/03/21 11:07:48;;;;;;;17.13;2.17;;;8.70;71.90;;;;;;4948217;28;20034;-76
2021/03/21 11:10:14;;;;;;;18.98;1.75;;;8.80;70.30;;;;;;4947289;28;20510;-76
2021/03/21 11:12:42;;;;;;;21.45;2.22;;;8.90;70.10;;;;;;4944987;28;20041;-76
2021/03/21 11:15:27;;;;;;;18.38;2.40;;;9.00;69.70;;;;;;4951306;28;20035;-76
2021/03/21 11:17:53;;;;;;;18.38;1.52;;;8.90;69.10;;;;;;4951745;28;20768;-75
2021/03/21 11:20:30;;;;;;;18.58;2.10;;;8.90;69.50;;;;;;4956071;28;20046;-75
2021/03/21 11:22:57;;;;;;;18.98;2.47;;;8.70;69.10;;;;;;4942461;28;20566;-75
2021/03/21 11:25:32;;;;;;;19.73;2.90;;;8.60;70.00;;;;;;4948779;28;20453;-75
2021/03/21 11:27:58;;;;;;;21.83;2.13;;;8.60;70.70;;;;;;4953457;28;20027;-75
2021/03/21 11:30:27;;;;;;;22.63;4.00;;;8.50;70.70;;;;;;4947680;28;20574;-75
2021/03/21 11:33:27;;;;;;;16.30;1.85;;;8.50;71.30;;;;;;4948015;28;20025;-75
2021/03/21 11:36:17;;;;;;;18.10;1.77;;;8.50;71.60;;;;;;4947542;28;20062;-75
2021/03/21 11:38:42;;;;;;;23.45;2.70;;;8.50;70.70;;;;;;4952833;28;20020;-75
2021/03/21 11:41:35;;;;;;;20.88;2.13;;;8.70;70.80;;;;;;4949995;28;20034;-75
2021/03/21 11:44:25;;;;;;;19.63;2.90;;;8.80;69.00;;;;;;4949687;28;20035;-75
2021/03/21 11:46:53;;;;;;;17.10;1.40;;;8.90;69.10;;;;;;4968968;28;20027;-76
2021/03/21 11:49:21;;;;;;;14.73;1.77;;;8.90;69.50;;;;;;4957204;28;20023;-76
2021/03/21 11:51:53;;;;;;;21.63;2.63;;;9.10;69.40;;;;;;4966810;28;20054;-76
2021/03/21 11:54:21;;;;;;;22.85;2.60;;;9.10;68.90;;;;;;4957876;28;20086;-76
2021/03/21 11:56:54;;;;;;;17.77;2.20;;;9.10;69.00;;;;;;4971811;28;20031;-76
2021/03/21 11:59:26;;;;;;;22.92;2.60;;;9.10;68.00;;;;;;4971929;28;20058;-76
2021/03/21 12:01:56;;;;;;;32.47;2.60;;;9.00;68.70;;;;;;4969101;28;20111;-74
2021/03/21 12:04:34;;;;;;;26.10;1.92;;;8.80;68.40;;;;;;4963968;28;20038;-74
2021/03/21 12:07:00;;;;;;;26.08;3.28;;;8.70;69.40;;;;;;4970765;28;20024;-75
2021/03/21 12:09:28;;;;;;;24.52;2.72;;;8.70;69.80;;;;;;4951650;28;20650;-74
2021/03/21 12:11:55;;;;;;;15.95;2.42;;;8.80;69.70;;;;;;4941707;28;20400;-74
2021/03/21 12:14:32;;;;;;;15.90;2.25;;;8.70;68.60;;;;;;4952303;28;20064;-76
2021/03/21 12:17:23;;;;;;;19.90;2.75;;;8.70;68.30;;;;;;4954346;28;20039;-76
2021/03/21 12:19:50;;;;;;;18.90;2.17;;;8.70;68.20;;;;;;4946851;28;20062;-75
2021/03/21 12:22:26;;;;;;;21.25;2.50;;;8.70;68.90;;;;;;4953007;28;20031;-75
2021/03/21 12:24:54;;;;;;;20.83;2.55;;;8.90;68.70;;;;;;4958019;28;20036;-75
2021/03/21 12:27:30;;;;;;;27.75;3.35;;;8.90;68.60;;;;;;4941494;28;20039;-75
2021/03/21 12:30:14;;;;;;;25.92;2.90;;;8.80;67.80;;;;;;4937653;28;20035;-75
2021/03/21 12:32:42;;;;;;;21.38;2.08;;;8.70;68.20;;;;;;4958327;28;20118;-77
2021/03/21 12:35:23;;;;;;;19.40;2.75;;;8.60;68.90;;;;;;4928242;28;20432;-75
2021/03/21 12:38:02;;;;;;;30.00;2.88;;;8.60;68.70;;;;;;4927450;28;20039;-75
2021/03/21 12:40:37;;;;;;;24.08;3.28;;;8.50;68.80;;;;;;4924924;28;20043;-74
2021/03/21 12:43:22;;;;;;;23.95;2.85;;;8.50;69.10;;;;;;4935400;28;20021;-74
2021/03/21 12:46:13;;;;;;;27.75;3.30;;;8.60;69.40;;;;;;4947088;28;20102;-74
2021/03/21 12:48:49;;;;;;;22.35;2.97;;;8.70;69.30;;;;;;4941413;28;20042;-74
2021/03/21 12:51:29;;;;;;;27.42;4.10;;;8.60;69.00;;;;;;4946538;28;20431;-74
2021/03/21 12:53:55;;;;;;;18.52;2.13;;;8.40;69.70;;;;;;4948529;28;20095;-74
2021/03/21 12:56:20;;;;;;;26.15;2.50;;;8.40;70.20;;;;;;4941640;29;20043;-74
2021/03/21 12:58:46;;;;;;;22.20;2.83;;;8.30;70.20;;;;;;4933916;28;20058;-75
2021/03/21 13:01:12;;;;;;;28.27;2.78;;;8.20;70.70;;;;;;4924960;28;20674;-75
2021/03/21 13:03:37;;;;;;;23.20;2.72;;;8.30;70.90;;;;;;4927071;28;20039;-75
2021/03/21 13:06:04;;;;;;;28.70;3.35;;;8.30;71.00;;;;;;4927528;28;20507;-76
2021/03/21 13:08:31;;;;;;;27.63;3.03;;;8.40;70.60;;;;;;4929245;28;20054;-76
2021/03/21 13:10:58;;;;;;;19.00;2.58;;;8.40;70.90;;;;;;4945203;28;20177;-75
2021/03/21 13:13:25;;;;;;;25.35;3.58;;;8.30;70.90;;;;;;4947839;28;20030;-75
2021/03/21 13:15:52;;;;;;;24.27;2.30;;;8.40;70.70;;;;;;4946300;28;20112;-76
2021/03/21 13:18:20;;;;;;;27.15;2.33;;;8.40;70.00;;;;;;4947812;28;20633;-75
2021/03/21 13:20:47;;;;;;;23.40;3.30;;;8.40;70.00;;;;;;4940397;28;20083;-74
2021/03/21 13:23:14;;;;;;;18.73;3.03;;;8.40;70.10;;;;;;4951578;28;20033;-76
2021/03/21 13:25:39;;;;;;;26.95;3.35;;;8.50;69.60;;;;;;4972766;28;20054;-73
2021/03/21 13:28:08;;;;;;;19.13;2.30;;;8.60;69.20;;;;;;4934059;28;21517;-76
2021/03/21 13:30:36;;;;;;;23.23;2.60;;;8.60;69.20;;;;;;4946382;28;20031;-76
2021/03/21 13:33:03;;;;;;;29.65;2.67;;;8.50;69.10;;;;;;4949080;28;20031;-76
2021/03/21 13:35:31;;;;;;;26.98;3.88;;;8.50;69.90;;;;;;4955485;28;20035;-74
2021/03/21 13:37:58;;;;;;;21.35;3.10;;;8.40;70.10;;;;;;4983732;28;20047;-74
2021/03/21 13:40:29;;;;;;;23.98;3.40;;;8.50;70.20;;;;;;4950880;29;20053;-75